Time;durP1;ratioP1;P1;durP2;ratioP2;P2;SDS_P1;SDS_P2;PMS_P1;PMS_P2;Temp;Humidity;BMP_temperature;BMP_pressure;BME280_temperature;BME280_humidity;BME280_pressure;Samples;Min_cycle;Max_cycle;Signal;HPM_P1;HPM_P2
2023/02/24 00:01:17;;;;;;;21.55;7.85;;;5.30;99.90;;;;;;4893880;29;20030;-84
2023/02/24 00:03:43;;;;;;;28.38;6.20;;;5.50;99.90;;;;;;4893666;29;20563;-84
2023/02/24 00:06:12;;;;;;;37.28;7.55;;;5.20;99.90;;;;;;4880106;29;20028;-84
2023/02/24 00:08:38;;;;;;;35.58;7.93;;;5.30;99.90;;;;;;4900123;29;20047;-84
2023/02/24 00:11:14;;;;;;;25.98;6.32;;;5.30;99.90;;;;;;4899327;29;20492;-84
2023/02/24 00:13:40;;;;;;;22.33;5.93;;;5.30;99.90;;;;;;4907812;29;20341;-84
2023/02/24 00:16:06;;;;;;;25.38;7.00;;;5.30;99.90;;;;;;4891378;29;20036;-84
2023/02/24 00:18:32;;;;;;;22.90;5.80;;;5.40;99.90;;;;;;4888856;29;20070;-84
2023/02/24 00:21:07;;;;;;;24.67;5.95;;;5.40;99.90;;;;;;4907251;29;20059;-82
2023/02/24 00:23:34;;;;;;;17.42;5.03;;;5.40;99.90;;;;;;4903267;29;20046;-82
2023/02/24 00:26:00;;;;;;;23.65;4.80;;;5.40;99.90;;;;;;4907370;29;20538;-83
2023/02/24 00:28:27;;;;;;;36.88;5.05;;;5.30;99.90;;;;;;4911004;29;20075;-82
2023/02/24 00:30:54;;;;;;;34.85;4.40;;;5.20;99.90;;;;;;4893289;29;20031;-83
2023/02/24 00:33:22;;;;;;;27.15;5.03;;;5.20;99.90;;;;;;4898403;29;20075;-85
2023/02/24 00:35:48;;;;;;;22.02;4.28;;;5.10;99.90;;;;;;4895963;29;20036;-82
2023/02/24 00:38:14;;;;;;;21.90;4.40;;;5.10;99.90;;;;;;4890076;29;20436;-82
2023/02/24 00:40:44;;;;;;;28.67;5.88;;;5.10;99.90;;;;;;4888360;29;20423;-82
2023/02/24 00:43:10;;;;;;;11.55;3.70;;;5.10;99.90;;;;;;4889630;29;20039;-82
2023/02/24 00:45:38;;;;;;;27.17;6.25;;;5.10;99.90;;;;;;4892826;29;20039;-84
2023/02/24 00:48:04;;;;;;;31.33;8.07;;;5.00;99.90;;;;;;4897826;29;20035;-82
2023/02/24 00:50:32;;;;;;;17.52;5.72;;;4.90;99.90;;;;;;4896805;29;20046;-82
2023/02/24 00:52:58;;;;;;;30.30;7.35;;;5.00;99.90;;;;;;4880689;29;20059;-82
2023/02/24 00:55:26;;;;;;;31.02;9.02;;;5.00;99.90;;;;;;4895964;29;20071;-81
2023/02/24 00:57:52;;;;;;;27.92;9.25;;;5.00;99.90;;;;;;4877676;29;20031;-82
2023/02/24 01:00:22;;;;;;;41.83;10.48;;;5.00;99.90;;;;;;4888480;29;20971;-83
2023/02/24 01:02:47;;;;;;;30.88;9.35;;;4.90;99.90;;;;;;4896919;29;20520;-84
2023/02/24 01:05:13;;;;;;;29.58;11.52;;;4.90;99.90;;;;;;4887339;29;20038;-82
2023/02/24 01:07:39;;;;;;;27.63;9.27;;;4.80;99.90;;;;;;4871923;29;20044;-82
2023/02/24 01:10:07;;;;;;;33.22;8.15;;;4.90;99.90;;;;;;4894114;29;20431;-82
2023/02/24 01:12:49;;;;;;;29.85;5.85;;;5.00;99.90;;;;;;4893591;29;20036;-82
2023/02/24 01:15:18;;;;;;;26.40;4.93;;;4.80;99.90;;;;;;4875319;29;20052;-82
2023/02/24 01:17:44;;;;;;;31.63;6.63;;;4.70;99.90;;;;;;4869691;29;20901;-83
2023/02/24 01:20:17;;;;;;;19.08;4.40;;;4.70;99.90;;;;;;4887531;29;20040;-82
2023/02/24 01:22:45;;;;;;;25.63;5.15;;;4.80;99.90;;;;;;4889118;29;20127;-82
2023/02/24 01:25:11;;;;;;;31.20;4.68;;;4.80;99.90;;;;;;4883583;29;20040;-82
2023/02/24 01:27:36;;;;;;;30.42;4.90;;;4.90;99.90;;;;;;4874852;29;20051;-82
2023/02/24 01:30:03;;;;;;;19.90;5.10;;;4.80;99.90;;;;;;4881985;29;20598;-82
2023/02/24 01:32:30;;;;;;;23.30;4.13;;;4.90;99.90;;;;;;4890727;29;20527;-83
2023/02/24 01:34:56;;;;;;;19.15;4.00;;;4.90;99.90;;;;;;4895401;29;20036;-83
2023/02/24 01:37:22;;;;;;;19.75;4.25;;;4.80;99.90;;;;;;4905470;29;20095;-82
2023/02/24 01:39:48;;;;;;;30.38;4.00;;;4.90;99.90;;;;;;4879581;29;20391;-82
2023/02/24 01:42:15;;;;;;;18.85;4.35;;;4.80;99.90;;;;;;4899713;29;20452;-83
2023/02/24 01:44:42;;;;;;;31.95;4.72;;;4.80;99.90;;;;;;4888041;29;20576;-82
2023/02/24 01:47:08;;;;;;;24.13;4.35;;;4.80;99.90;;;;;;4916671;29;20518;-83
2023/02/24 01:49:43;;;;;;;26.08;3.90;;;4.80;99.90;;;;;;4887504;29;20032;-82
2023/02/24 01:52:10;;;;;;;20.35;3.83;;;4.70;99.90;;;;;;4875312;29;20031;-82
2023/02/24 01:54:41;;;;;;;28.15;4.28;;;4.80;99.90;;;;;;4899616;29;20131;-82
2023/02/24 01:57:11;;;;;;;15.13;3.33;;;4.70;99.90;;;;;;4904980;29;20028;-82
2023/02/24 01:59:37;;;;;;;39.60;5.63;;;4.80;99.90;;;;;;4886550;29;20062;-82
2023/02/24 02:02:05;;;;;;;22.38;5.35;;;4.60;99.90;;;;;;4876680;29;20123;-82
2023/02/24 02:04:39;;;;;;;33.67;6.25;;;4.70;99.90;;;;;;4887207;29;20043;-82
2023/02/24 02:07:05;;;;;;;31.80;5.88;;;4.70;99.90;;;;;;4868207;29;20551;-81
2023/02/24 02:09:31;;;;;;;32.25;6.80;;;4.60;99.90;;;;;;4864054;29;20235;-82
2023/02/24 02:11:57;;;;;;;37.03;8.60;;;4.60;99.90;;;;;;4910410;29;20039;-82
2023/02/24 02:14:24;;;;;;;28.77;5.75;;;4.50;99.90;;;;;;4893322;29;20042;-81
2023/02/24 02:17:11;;;;;;;30.23;5.85;;;4.40;99.90;;;;;;4901044;29;20966;-82
2023/02/24 02:19:46;;;;;;;20.45;5.22;;;4.50;99.90;;;;;;4870419;29;20078;-82
2023/02/24 02:22:30;;;;;;;30.02;6.28;;;4.50;99.90;;;;;;4832673;29;20031;-81
2023/02/24 02:24:56;;;;;;;19.45;5.63;;;4.50;99.90;;;;;;4897609;29;20471;-81
2023/02/24 02:27:28;;;;;;;21.17;5.07;;;4.50;99.90;;;;;;4853190;29;20469;-82
2023/02/24 02:30:24;;;;;;;30.33;5.28;;;4.50;99.90;;;;;;4861802;29;20095;-81
2023/02/24 02:33:09;;;;;;;21.30;3.97;;;4.30;99.90;;;;;;4892216;29;20049;-82
2023/02/24 02:35:45;;;;;;;20.55;4.43;;;4.40;99.90;;;;;;4874609;29;20080;-81
2023/02/24 02:38:11;;;;;;;10.77;3.00;;;4.40;99.90;;;;;;4848654;29;20039;-82
2023/02/24 02:40:44;;;;;;;11.68;3.00;;;4.50;99.90;;;;;;4887403;28;20552;-82
2023/02/24 02:43:55;;;;;;;21.33;4.68;;;4.30;99.90;;;;;;4876105;29;20522;-82
2023/02/24 02:46:51;;;;;;;22.00;4.20;;;4.20;99.90;;;;;;4871955;29;20122;-81
2023/02/24 02:49:29;;;;;;;34.00;5.30;;;4.10;99.90;;;;;;4884973;29;20028;-81
2023/02/24 02:51:56;;;;;;;16.70;3.47;;;4.10;99.90;;;;;;4876032;29;20028;-81
2023/02/24 02:54:35;;;;;;;12.30;3.03;;;4.20;99.90;;;;;;4870941;29;20042;-81
2023/02/24 02:57:12;;;;;;;25.55;4.15;;;4.20;99.90;;;;;;4869998;29;20039;-80
2023/02/24 02:59:41;;;;;;;12.35;3.13;;;4.30;99.90;;;;;;4880401;29;20040;-81
2023/02/24 03:02:13;;;;;;;17.20;3.67;;;4.30;99.90;;;;;;4870341;29;20059;-81
2023/02/24 03:04:50;;;;;;;24.38;4.13;;;4.20;99.90;;;;;;4900557;29;20088;-80
2023/02/24 03:07:16;;;;;;;14.20;3.17;;;4.30;99.90;;;;;;4881247;29;20073;-80
2023/02/24 03:09:43;;;;;;;15.13;3.85;;;4.30;99.90;;;;;;4878668;29;20050;-80
2023/02/24 03:12:14;;;;;;;23.75;4.70;;;4.20;99.90;;;;;;4863096;29;20404;-80
2023/02/24 03:14:51;;;;;;;17.75;4.35;;;4.10;99.90;;;;;;4901248;29;20411;-80
2023/02/24 03:17:27;;;;;;;17.13;3.83;;;4.00;99.90;;;;;;4905840;29;20062;-80
2023/02/24 03:20:16;;;;;;;21.88;4.05;;;4.00;99.90;;;;;;4909088;29;20126;-81
2023/02/24 03:22:50;;;;;;;19.48;3.85;;;4.00;99.90;;;;;;4920306;28;20575;-81
2023/02/24 03:25:22;;;;;;;16.70;3.83;;;4.00;99.90;;;;;;4917304;29;20532;-81
2023/02/24 03:27:49;;;;;;;17.52;3.85;;;4.10;99.90;;;;;;4905276;29;20043;-80
2023/02/24 03:30:25;;;;;;;15.05;4.28;;;4.00;99.90;;;;;;4901710;29;20400;-81
2023/02/24 03:33:22;;;;;;;23.05;3.92;;;4.00;99.90;;;;;;4902699;29;20036;-81
2023/02/24 03:35:50;;;;;;;16.63;3.28;;;4.00;99.90;;;;;;4920269;29;20094;-82
2023/02/24 03:38:16;;;;;;;30.38;4.32;;;4.10;99.90;;;;;;4900739;29;20039;-81
2023/02/24 03:40:42;;;;;;;16.45;3.10;;;4.00;99.90;;;;;;4885511;29;20040;-81
2023/02/24 03:43:25;;;;;;;13.63;4.32;;;4.00;99.90;;;;;;4899455;29;20091;-81
2023/02/24 03:45:51;;;;;;;10.55;2.17;;;4.00;99.90;;;;;;4903399;29;20040;-80
2023/02/24 03:48:16;;;;;;;7.90;2.30;;;4.10;99.90;;;;;;4918813;29;20031;-80
2023/02/24 03:50:42;;;;;;;26.42;5.35;;;4.10;99.90;;;;;;4919845;29;20040;-80
2023/02/24 03:53:29;;;;;;;21.05;3.67;;;4.30;99.90;;;;;;4890558;29;20027;-81
2023/02/24 03:55:59;;;;;;;6.75;2.58;;;4.20;99.90;;;;;;4921259;29;20490;-81
2023/02/24 03:58:34;;;;;;;9.27;2.00;;;4.20;99.90;;;;;;4934277;29;20523;-81
2023/02/24 04:01:05;;;;;;;7.15;1.98;;;4.30;99.90;;;;;;4936787;29;20035;-81
2023/02/24 04:03:41;;;;;;;12.82;2.63;;;4.30;99.90;;;;;;4918901;29;20437;-81
2023/02/24 04:06:29;;;;;;;16.20;3.60;;;4.30;99.90;;;;;;4885953;29;20404;-81
2023/02/24 04:09:18;;;;;;;16.85;2.97;;;4.20;99.90;;;;;;4934843;29;20027;-81
2023/02/24 04:11:51;;;;;;;12.75;2.40;;;4.30;99.90;;;;;;4901806;29;20578;-81
2023/02/24 04:14:32;;;;;;;14.98;2.58;;;4.20;99.90;;;;;;4917075;29;20038;-81
2023/02/24 04:17:12;;;;;;;9.00;2.03;;;4.20;99.90;;;;;;4902230;29;20035;-81
2023/02/24 04:19:39;;;;;;;11.82;2.38;;;4.30;99.90;;;;;;4917442;29;20042;-81
2023/02/24 04:22:09;;;;;;;11.95;2.70;;;4.20;99.90;;;;;;4886806;29;20032;-81
2023/02/24 04:24:35;;;;;;;13.23;2.05;;;4.20;99.90;;;;;;4907026;29;20391;-81
2023/02/24 04:27:02;;;;;;;17.17;3.42;;;4.20;99.90;;;;;;4920010;29;20039;-81
2023/02/24 04:29:34;;;;;;;14.27;2.55;;;3.80;99.90;;;;;;4914899;29;20516;-81
2023/02/24 04:32:07;;;;;;;11.88;2.58;;;3.70;99.90;;;;;;4917923;29;20034;-81
2023/02/24 04:34:32;;;;;;;13.77;2.42;;;4.20;99.90;;;;;;4919410;29;20024;-81
2023/02/24 04:37:01;;;;;;;19.85;3.20;;;4.10;99.90;;;;;;4914790;29;20047;-81
2023/02/24 04:39:26;;;;;;;16.27;2.38;;;4.10;99.90;;;;;;4902376;29;20123;-81
2023/02/24 04:41:52;;;;;;;12.98;1.92;;;4.10;99.90;;;;;;4900789;29;20449;-81
2023/02/24 04:44:19;;;;;;;6.75;2.28;;;4.20;99.90;;;;;;4901646;29;20024;-80
2023/02/24 04:46:45;;;;;;;5.95;1.58;;;4.20;99.90;;;;;;4907810;29;20079;-81
2023/02/24 04:49:11;;;;;;;8.00;1.77;;;4.30;99.90;;;;;;4901539;29;20031;-81
2023/02/24 04:51:41;;;;;;;11.77;1.92;;;4.30;99.90;;;;;;4882871;29;20480;-80
2023/02/24 04:54:12;;;;;;;15.13;2.38;;;4.30;99.90;;;;;;4915182;29;20028;-79
2023/02/24 04:56:39;;;;;;;15.68;2.25;;;4.20;99.90;;;;;;4918310;29;20023;-79
2023/02/24 04:59:05;;;;;;;16.10;3.22;;;4.20;99.90;;;;;;4898632;29;20071;-79
2023/02/24 05:01:31;;;;;;;14.82;2.05;;;4.20;99.90;;;;;;4882256;29;20512;-80
2023/02/24 05:03:58;;;;;;;14.90;2.10;;;4.20;99.90;;;;;;4914433;29;20082;-81
2023/02/24 05:06:24;;;;;;;10.10;1.50;;;4.20;99.90;;;;;;4901779;29;20419;-83
2023/02/24 05:08:51;;;;;;;14.52;3.15;;;4.20;99.90;;;;;;4907427;29;20035;-83
2023/02/24 05:11:17;;;;;;;7.97;1.95;;;4.20;99.90;;;;;;4905404;29;20096;-83
2023/02/24 05:13:45;;;;;;;12.25;2.67;;;4.30;99.90;;;;;;4905639;29;20484;-83
2023/02/24 05:16:12;;;;;;;7.80;2.10;;;4.10;99.90;;;;;;4910781;29;20028;-83
2023/02/24 05:18:39;;;;;;;13.98;2.65;;;4.10;99.90;;;;;;4890060;29;20040;-84
2023/02/24 05:23:52;;;;;;;12.25;2.08;;;4.20;99.90;;;;;;4943733;29;20575;-83
2023/02/24 05:26:19;;;;;;;11.65;2.05;;;4.20;99.90;;;;;;4907930;29;20040;-83
2023/02/24 05:28:51;;;;;;;15.15;2.78;;;4.20;99.90;;;;;;4908125;29;20036;-84
2023/02/24 05:31:26;;;;;;;11.70;2.35;;;4.40;99.90;;;;;;4907809;29;20028;-83
2023/02/24 05:33:53;;;;;;;6.80;1.80;;;4.10;99.90;;;;;;4906338;29;20048;-83
2023/02/24 05:36:19;;;;;;;14.90;2.03;;;4.20;99.90;;;;;;4902638;29;20035;-83
2023/02/24 05:38:54;;;;;;;12.98;2.28;;;4.20;99.90;;;;;;4892732;29;20095;-84
2023/02/24 05:41:21;;;;;;;15.52;2.55;;;4.30;99.90;;;;;;4901932;29;20060;-83
2023/02/24 05:43:51;;;;;;;13.70;2.20;;;4.00;99.90;;;;;;4891008;29;20040;-83
2023/02/24 05:46:18;;;;;;;8.88;1.98;;;4.20;99.90;;;;;;4909043;29;20044;-84
2023/02/24 05:48:44;;;;;;;20.52;3.08;;;4.20;99.90;;;;;;4889367;29;20136;-82
2023/02/24 05:51:11;;;;;;;10.88;2.72;;;4.20;99.90;;;;;;4906425;29;20036;-82
2023/02/24 05:53:40;;;;;;;11.13;2.67;;;4.20;99.90;;;;;;4906459;29;20039;-83
2023/02/24 05:56:06;;;;;;;9.88;2.58;;;4.20;99.90;;;;;;4906151;29;20027;-82
2023/02/24 05:58:32;;;;;;;10.48;2.92;;;4.30;99.90;;;;;;4903871;29;20039;-83
2023/02/24 06:01:04;;;;;;;20.63;4.25;;;4.30;99.90;;;;;;4906098;29;20122;-83
2023/02/24 06:03:34;;;;;;;16.25;3.42;;;4.30;99.90;;;;;;4907090;29;20031;-82
2023/02/24 06:06:07;;;;;;;11.88;2.35;;;4.20;99.90;;;;;;4906733;29;20032;-83
2023/02/24 06:08:41;;;;;;;15.15;3.88;;;4.20;99.90;;;;;;4905500;29;20071;-83
2023/02/24 06:11:09;;;;;;;22.23;4.40;;;4.20;99.90;;;;;;4907337;29;20049;-83
2023/02/24 06:13:38;;;;;;;28.40;5.10;;;4.20;99.90;;;;;;4889496;29;20031;-83
2023/02/24 06:16:05;;;;;;;13.80;4.00;;;4.30;99.90;;;;;;4902651;29;20529;-83
2023/02/24 06:18:30;;;;;;;16.48;3.70;;;4.20;99.90;;;;;;4902455;29;20042;-82
2023/02/24 06:20:56;;;;;;;17.52;4.82;;;4.50;99.90;;;;;;4902108;29;20039;-83
2023/02/24 06:23:25;;;;;;;16.63;4.30;;;4.20;99.90;;;;;;4888399;29;20115;-83
2023/02/24 06:25:52;;;;;;;17.25;3.55;;;4.20;99.90;;;;;;4905911;29;20039;-82
2023/02/24 06:28:18;;;;;;;23.00;4.47;;;4.30;99.90;;;;;;4908170;29;20058;-83
2023/02/24 06:30:44;;;;;;;12.65;3.83;;;4.30;99.90;;;;;;4899941;29;20043;-83
2023/02/24 06:33:11;;;;;;;18.17;3.85;;;4.20;99.90;;;;;;4902378;29;20044;-83
2023/02/24 06:35:37;;;;;;;17.70;3.75;;;4.20;99.90;;;;;;4904807;29;20032;-81
2023/02/24 06:38:03;;;;;;;11.32;2.53;;;4.20;99.90;;;;;;4903918;29;20049;-81
2023/02/24 06:40:30;;;;;;;9.82;2.28;;;4.60;99.90;;;;;;4919127;29;20043;-82
2023/02/24 06:42:55;;;;;;;17.45;4.22;;;4.40;99.90;;;;;;4887986;29;20044;-80
2023/02/24 06:45:22;;;;;;;20.75;3.78;;;4.40;99.90;;;;;;4890159;29;20559;-81
2023/02/24 06:47:53;;;;;;;10.60;2.65;;;4.50;99.90;;;;;;4918005;29;20294;-81
2023/02/24 06:50:19;;;;;;;2.40;1.17;;;4.30;99.90;;;;;;4916770;29;20099;-79
2023/02/24 06:52:45;;;;;;;12.00;2.72;;;4.30;99.90;;;;;;4910740;29;20451;-78
2023/02/24 06:55:34;;;;;;;13.48;3.60;;;4.40;99.90;;;;;;4897016;29;20403;-78
2023/02/24 06:57:58;;;;;;;9.75;2.88;;;4.20;99.90;;;;;;4900459;29;20083;-78
2023/02/24 07:00:35;;;;;;;9.80;2.80;;;4.30;99.90;;;;;;4897488;29;20036;-78
2023/02/24 07:03:13;;;;;;;13.98;2.72;;;4.30;99.90;;;;;;4913524;29;20035;-79
2023/02/24 07:05:41;;;;;;;11.75;2.67;;;4.30;99.90;;;;;;4899120;29;20043;-79
2023/02/24 07:08:07;;;;;;;10.98;2.80;;;4.40;99.90;;;;;;4895114;29;20122;-79
2023/02/24 07:10:33;;;;;;;10.30;2.42;;;4.40;99.90;;;;;;4895678;29;20480;-79
2023/02/24 07:12:59;;;;;;;9.88;1.27;;;4.30;99.90;;;;;;4900501;29;20035;-79
2023/02/24 07:15:24;;;;;;;3.45;1.42;;;4.30;99.90;;;;;;4897082;29;20047;-80
2023/02/24 07:17:53;;;;;;;5.90;2.38;;;4.30;99.90;;;;;;4898199;29;20071;-80
2023/02/24 07:20:24;;;;;;;23.52;4.10;;;4.30;99.90;;;;;;4914813;29;20048;-80
2023/02/24 07:22:50;;;;;;;11.40;2.55;;;4.30;99.90;;;;;;4898330;29;20035;-80
2023/02/24 07:25:31;;;;;;;7.32;2.33;;;4.40;99.90;;;;;;4897477;29;20032;-80
2023/02/24 07:28:00;;;;;;;6.72;2.28;;;4.30;99.90;;;;;;4904544;29;20495;-80
2023/02/24 07:30:29;;;;;;;11.30;2.72;;;4.40;99.90;;;;;;4913151;29;20039;-80
2023/02/24 07:32:55;;;;;;;15.90;3.13;;;4.40;99.90;;;;;;4884023;29;20082;-81
2023/02/24 07:35:22;;;;;;;13.60;2.80;;;4.40;99.90;;;;;;4897963;29;20048;-80
2023/02/24 07:37:48;;;;;;;14.10;3.30;;;4.90;99.90;;;;;;4899328;29;20567;-80
2023/02/24 07:40:16;;;;;;;8.05;1.88;;;4.40;99.90;;;;;;4898414;29;20039;-80
2023/02/24 07:42:42;;;;;;;9.95;2.63;;;4.50;99.90;;;;;;4899763;29;20131;-80
2023/02/24 07:45:09;;;;;;;11.57;2.10;;;4.50;99.90;;;;;;4902276;29;20043;-81
2023/02/24 07:47:35;;;;;;;11.25;3.03;;;4.50;99.90;;;;;;4900996;29;20035;-81
2023/02/24 07:50:09;;;;;;;9.02;2.15;;;4.50;99.90;;;;;;4897161;29;20653;-81
2023/02/24 07:52:35;;;;;;;8.93;2.30;;;4.50;99.90;;;;;;4888073;29;20039;-80
2023/02/24 07:55:01;;;;;;;20.42;4.13;;;4.50;99.90;;;;;;4900614;29;20062;-80
2023/02/24 07:57:27;;;;;;;10.35;3.25;;;4.60;99.90;;;;;;4899416;29;20040;-80
2023/02/24 07:59:53;;;;;;;11.35;2.50;;;4.50;99.90;;;;;;4901517;29;20038;-80
2023/02/24 08:02:18;;;;;;;8.15;1.92;;;4.50;99.90;;;;;;4902305;29;20089;-80
2023/02/24 08:04:48;;;;;;;8.68;2.70;;;4.60;99.90;;;;;;4903679;29;20036;-81
2023/02/24 08:07:15;;;;;;;13.23;2.25;;;4.60;99.90;;;;;;4921016;29;20503;-80
2023/02/24 08:12:20;;;;;;;18.92;2.83;;;4.60;99.90;;;;;;4904938;29;20078;-82
2023/02/24 08:14:52;;;;;;;4.40;1.45;;;4.60;99.90;;;;;;4920660;29;20036;-80
2023/02/24 08:17:22;;;;;;;16.75;3.22;;;4.60;99.90;;;;;;4903957;29;20384;-80
2023/02/24 08:19:49;;;;;;;10.43;2.20;;;4.60;99.90;;;;;;4901902;29;20042;-80
2023/02/24 08:22:18;;;;;;;2.55;1.25;;;4.60;99.90;;;;;;4887769;29;20036;-80
2023/02/24 08:24:49;;;;;;;5.10;1.50;;;4.70;99.90;;;;;;4898050;29;20456;-80
2023/02/24 08:27:21;;;;;;;5.07;1.50;;;4.70;99.90;;;;;;4869738;29;20033;-80
2023/02/24 08:29:58;;;;;;;9.32;2.70;;;4.80;99.90;;;;;;4910699;29;20044;-81
2023/02/24 08:32:37;;;;;;;9.23;1.88;;;5.00;99.90;;;;;;4900577;29;20036;-80
2023/02/24 08:35:13;;;;;;;15.02;2.95;;;4.70;99.90;;;;;;4914070;29;20040;-80
2023/02/24 08:37:50;;;;;;;16.65;3.35;;;4.80;99.90;;;;;;4909196;29;20031;-80
2023/02/24 08:43:15;;;;;;;8.93;1.85;;;4.90;99.90;;;;;;4901948;29;20572;-81
2023/02/24 08:46:03;;;;;;;7.32;3.15;;;4.90;99.90;;;;;;4899188;29;20577;-79
2023/02/24 08:48:38;;;;;;;10.43;2.80;;;4.90;99.90;;;;;;4899950;29;20408;-79
2023/02/24 08:51:14;;;;;;;10.00;3.70;;;4.90;99.90;;;;;;4900180;29;20038;-79
2023/02/24 08:53:40;;;;;;;6.35;2.35;;;5.00;99.90;;;;;;4910406;29;20408;-80
2023/02/24 08:56:10;;;;;;;8.07;2.15;;;5.00;99.90;;;;;;4894577;29;20035;-81
2023/02/24 08:58:45;;;;;;;5.75;2.20;;;5.00;99.90;;;;;;4896910;29;20043;-81
2023/02/24 09:01:22;;;;;;;6.50;2.25;;;5.30;99.90;;;;;;4899970;29;20167;-81
2023/02/24 09:03:49;;;;;;;13.25;2.83;;;4.90;99.90;;;;;;4887460;29;20043;-81
2023/02/24 09:06:16;;;;;;;4.00;2.10;;;5.00;99.90;;;;;;4900653;29;20377;-82
2023/02/24 09:08:43;;;;;;;6.75;2.53;;;5.10;99.90;;;;;;4887197;29;20584;-82
2023/02/24 09:11:12;;;;;;;9.63;2.97;;;5.10;99.90;;;;;;4899873;29;20043;-81
2023/02/24 09:13:50;;;;;;;13.18;3.92;;;5.10;99.90;;;;;;4899685;29;20408;-81
2023/02/24 09:16:19;;;;;;;12.68;3.55;;;5.20;99.90;;;;;;4887764;29;20039;-81
2023/02/24 09:18:44;;;;;;;19.23;3.60;;;5.20;99.90;;;;;;4903891;29;20031;-81
2023/02/24 09:23:55;;;;;;;12.88;2.95;;;5.30;99.90;;;;;;4906177;29;20043;-80
2023/02/24 09:26:21;;;;;;;13.18;3.22;;;5.30;99.90;;;;;;4900558;29;20040;-81
2023/02/24 09:28:54;;;;;;;8.93;2.50;;;5.30;99.90;;;;;;4915209;29;20032;-80
2023/02/24 09:31:22;;;;;;;12.65;3.50;;;5.40;99.90;;;;;;4883224;29;20043;-80
2023/02/24 09:33:49;;;;;;;7.95;2.28;;;5.40;99.90;;;;;;4885571;29;20034;-80
2023/02/24 09:36:19;;;;;;;9.93;2.20;;;5.50;99.90;;;;;;4898300;29;20043;-80
2023/02/24 09:41:44;;;;;;;14.48;3.40;;;5.50;99.90;;;;;;4919882;29;20126;-80
2023/02/24 09:44:17;;;;;;;8.77;2.50;;;5.50;99.90;;;;;;4932444;29;20512;-82
2023/02/24 09:47:08;;;;;;;6.43;2.63;;;5.50;99.90;;;;;;4901482;29;20063;-81
2023/02/24 09:49:57;;;;;;;10.63;2.40;;;5.50;99.90;;;;;;4920990;29;20393;-80
2023/02/24 09:52:40;;;;;;;5.78;2.80;;;5.50;99.90;;;;;;4917053;29;20027;-81
2023/02/24 09:55:26;;;;;;;18.10;2.67;;;5.60;99.90;;;;;;4920788;29;20040;-80
2023/02/24 09:58:21;;;;;;;2.72;1.10;;;5.60;99.90;;;;;;4900466;29;20055;-80
2023/02/24 10:00:56;;;;;;;4.20;1.85;;;5.70;99.90;;;;;;4927142;29;20420;-81
2023/02/24 10:03:46;;;;;;;6.60;0.98;;;5.60;99.90;;;;;;4914475;29;20151;-80
2023/02/24 10:06:19;;;;;;;4.47;1.20;;;5.80;99.90;;;;;;4920311;29;20032;-78
2023/02/24 10:08:57;;;;;;;7.35;2.67;;;5.70;99.90;;;;;;4899287;29;20408;-80
2023/02/24 10:11:34;;;;;;;5.65;1.30;;;5.70;99.90;;;;;;4913502;29;20036;-81
2023/02/24 10:14:05;;;;;;;8.50;1.83;;;5.70;99.90;;;;;;4913703;29;20616;-80
2023/02/24 10:16:41;;;;;;;9.15;2.45;;;5.80;99.90;;;;;;4897733;29;20032;-80
2023/02/24 10:19:13;;;;;;;5.10;1.85;;;5.80;99.90;;;;;;4899309;29;20177;-81
2023/02/24 10:21:59;;;;;;;7.63;2.15;;;5.70;99.90;;;;;;4914627;29;20481;-81
2023/02/24 10:24:34;;;;;;;6.07;2.03;;;5.70;99.90;;;;;;4901834;29;20432;-82
2023/02/24 10:27:25;;;;;;;8.10;2.20;;;5.70;99.90;;;;;;4920675;29;20043;-82
2023/02/24 10:30:18;;;;;;;6.80;2.13;;;5.70;99.90;;;;;;4915335;29;20135;-81
2023/02/24 10:32:58;;;;;;;3.55;1.77;;;5.70;99.90;;;;;;4914903;29;20070;-81
2023/02/24 10:35:25;;;;;;;14.35;2.33;;;5.60;99.90;;;;;;4900610;29;20075;-81
2023/02/24 10:37:52;;;;;;;6.10;1.65;;;5.60;99.90;;;;;;4917610;29;20090;-82
2023/02/24 10:40:25;;;;;;;5.90;1.90;;;5.70;99.90;;;;;;4901181;29;20086;-81
2023/02/24 10:42:53;;;;;;;8.38;2.28;;;5.70;99.90;;;;;;4882875;29;20083;-81
2023/02/24 10:45:30;;;;;;;7.28;1.00;;;5.50;99.90;;;;;;4898703;29;20113;-82
2023/02/24 10:47:58;;;;;;;10.57;2.30;;;5.70;99.90;;;;;;4909377;29;20689;-85
2023/02/24 10:51:07;;;;;;;9.75;2.80;;;5.40;99.90;;;;;;4892381;29;20044;-82
2023/02/24 10:53:42;;;;;;;2.22;1.13;;;5.30;99.90;;;;;;4882476;29;20233;-84
2023/02/24 10:56:26;;;;;;;10.40;1.40;;;5.30;99.90;;;;;;4912857;29;20044;-80
2023/02/24 11:02:05;;;;;;;7.18;1.27;;;7.80;99.90;;;;;;4902975;29;20054;-84
2023/02/24 11:07:42;;;;;;;2.75;1.00;;;5.70;99.90;;;;;;4919484;29;20032;-82
2023/02/24 11:10:13;;;;;;;10.18;2.63;;;5.50;99.90;;;;;;4888568;29;20115;-81
2023/02/24 11:18:19;;;;;;;3.20;0.93;;;5.30;99.90;;;;;;4888340;29;20551;-81
2023/02/24 11:20:47;;;;;;;10.93;2.10;;;5.30;99.90;;;;;;4899955;29;20035;-80
2023/02/24 11:23:33;;;;;;;3.20;1.13;;;5.20;99.90;;;;;;4899276;29;20515;-80
2023/02/24 11:26:03;;;;;;;12.95;1.98;;;5.10;99.90;;;;;;4899950;29;20039;-81
2023/02/24 11:28:48;;;;;;;9.63;2.35;;;5.10;99.90;;;;;;4899001;29;20559;-81
2023/02/24 11:31:31;;;;;;;5.47;2.35;;;5.10;99.90;;;;;;4909429;29;20042;-75
2023/02/24 11:34:03;;;;;;;4.13;1.45;;;5.00;99.90;;;;;;4911137;29;20590;-76
2023/02/24 11:36:44;;;;;;;14.70;3.22;;;5.00;99.90;;;;;;4898169;29;20185;-75
2023/02/24 11:39:38;;;;;;;10.45;3.28;;;5.00;99.90;;;;;;4917721;29;20499;-77
2023/02/24 11:42:09;;;;;;;11.68;2.85;;;5.00;99.90;;;;;;4917301;29;20098;-77
2023/02/24 11:44:52;;;;;;;11.23;2.22;;;5.00;99.90;;;;;;4914724;29;20043;-76
2023/02/24 11:47:22;;;;;;;6.78;1.88;;;5.00;99.90;;;;;;4884512;29;20024;-76
2023/02/24 11:49:53;;;;;;;16.45;4.18;;;4.80;99.90;;;;;;4899713;29;20038;-77
2023/02/24 11:52:33;;;;;;;10.15;3.35;;;5.10;99.90;;;;;;4898649;29;20483;-76
2023/02/24 11:54:59;;;;;;;9.00;1.83;;;5.00;99.90;;;;;;4879157;29;20070;-76
2023/02/24 11:57:58;;;;;;;11.70;3.45;;;5.00;99.90;;;;;;4915397;29;20039;-75
2023/02/24 12:00:26;;;;;;;7.35;2.45;;;5.00;99.90;;;;;;4898210;29;20118;-76
2023/02/24 12:02:54;;;;;;;15.45;3.63;;;4.90;99.90;;;;;;4898313;29;20031;-76
2023/02/24 12:05:28;;;;;;;9.25;2.85;;;5.00;99.90;;;;;;4913944;29;20355;-76
2023/02/24 12:08:00;;;;;;;13.88;2.13;;;4.90;99.90;;;;;;4556878;29;10000138;-78
2023/02/24 12:10:34;;;;;;;11.32;3.47;;;5.00;99.90;;;;;;4896412;29;20070;-78
2023/02/24 12:13:20;;;;;;;13.95;3.33;;;5.00;99.90;;;;;;4912476;29;20083;-75
2023/02/24 12:16:17;;;;;;;10.65;3.08;;;5.00;99.90;;;;;;4927547;29;20039;-76
2023/02/24 12:19:11;;;;;;;5.60;1.35;;;5.00;99.90;;;;;;4900012;29;20043;-76
2023/02/24 12:21:42;;;;;;;6.65;2.50;;;5.00;99.90;;;;;;4898631;29;20055;-75
2023/02/24 12:24:11;;;;;;;4.60;1.92;;;5.00;99.90;;;;;;4895095;29;20047;-76
2023/02/24 12:26:46;;;;;;;6.93;2.40;;;5.00;99.90;;;;;;4898782;29;20504;-77
2023/02/24 12:29:41;;;;;;;8.95;3.42;;;5.00;99.90;;;;;;4889858;29;20042;-77
2023/02/24 12:32:15;;;;;;;4.75;1.58;;;5.00;99.90;;;;;;4910714;29;20024;-76
2023/02/24 12:35:06;;;;;;;7.93;2.63;;;4.90;99.90;;;;;;4916052;29;20063;-76
2023/02/24 12:37:54;;;;;;;10.38;3.75;;;4.80;99.90;;;;;;4926904;29;20040;-77
2023/02/24 12:40:32;;;;;;;10.23;3.50;;;4.80;99.90;;;;;;4912456;29;20404;-76
2023/02/24 12:43:29;;;;;;;14.40;2.05;;;5.10;99.90;;;;;;4897241;29;20070;-77
2023/02/24 12:46:12;;;;;;;7.95;2.85;;;4.80;99.90;;;;;;4915135;29;20031;-77
2023/02/24 12:49:03;;;;;;;9.88;3.78;;;4.80;99.90;;;;;;4929507;29;22198;-76
2023/02/24 12:51:38;;;;;;;10.82;3.17;;;4.80;99.90;;;;;;4911990;29;20110;-76
2023/02/24 12:54:03;;;;;;;7.72;2.65;;;4.80;99.90;;;;;;4896945;29;20027;-77
2023/02/24 12:56:44;;;;;;;13.38;2.60;;;4.80;99.90;;;;;;4911064;29;20411;-76
2023/02/24 12:59:12;;;;;;;15.23;3.72;;;4.80;99.90;;;;;;4915487;29;20031;-76
2023/02/24 13:01:48;;;;;;;8.20;2.88;;;4.80;99.90;;;;;;4896159;29;20511;-77
2023/02/24 13:04:34;;;;;;;13.50;3.88;;;4.70;99.90;;;;;;4889809;29;20445;-80
2023/02/24 13:06:59;;;;;;;12.48;3.13;;;4.70;99.90;;;;;;4920946;29;20031;-80
2023/02/24 13:09:34;;;;;;;6.93;2.60;;;4.60;99.90;;;;;;4938804;29;20050;-77
2023/02/24 13:12:19;;;;;;;11.50;3.73;;;4.60;99.90;;;;;;4930744;29;20086;-76
2023/02/24 13:14:44;;;;;;;8.63;3.28;;;4.60;99.90;;;;;;4912478;29;20047;-76
2023/02/24 13:17:10;;;;;;;12.75;4.43;;;4.60;99.90;;;;;;4898896;29;20475;-76
2023/02/24 13:19:37;;;;;;;17.67;4.95;;;4.60;99.90;;;;;;4917916;29;20063;-80
2023/02/24 13:22:11;;;;;;;11.13;3.42;;;5.00;99.90;;;;;;4901557;29;20118;-79
2023/02/24 13:24:42;;;;;;;11.80;4.68;;;4.60;99.90;;;;;;4934794;29;20042;-81
2023/02/24 13:27:42;;;;;;;4.30;2.92;;;4.60;99.90;;;;;;4899558;29;20071;-81
2023/02/24 13:30:11;;;;;;;14.23;4.13;;;4.60;99.90;;;;;;4901864;29;20499;-80
2023/02/24 13:32:38;;;;;;;9.20;4.53;;;4.70;99.90;;;;;;4931855;29;20550;-81
2023/02/24 13:35:05;;;;;;;5.43;3.05;;;4.50;99.90;;;;;;4910135;29;20524;-81
2023/02/24 13:37:35;;;;;;;6.43;3.38;;;4.50;99.90;;;;;;4909938;29;20155;-81
2023/02/24 13:40:21;;;;;;;9.90;3.10;;;4.50;99.90;;;;;;4918728;29;20039;-80
2023/02/24 13:42:56;;;;;;;15.63;5.63;;;4.50;99.90;;;;;;4919466;29;20252;-82